^^
Saratoga-Weather Station Historical Data
Daily Summary for August 8, 2021 Units:  English    Metric   Both
Daily Weekly Monthly Yearly Custom
  High: Low: Average:
Temperature: 44.4 °F 39.9 °F 42.8 °F
Dew Point: 42.3 °F 37.6 °F 40.3 °F
Humidity: 95% 87% 91%
Wind Speed: 6.9mph 0mph 1.6mph
Wind Gust: 16mph - -
Wind- - SW
Pressure: 29.5 in 29.4 in -
Precipitation: 0.01 in    
Historical Graphs
 
 
Tabular Data for August 8, 2021
Time Temperature Dew Point Pressure Wind Wind Speed Wind Gust Humidity Rainfall Rate (Hourly) solar
00:03 39.9 °F 38.3 °F 29.4 in ENE 0.9 mph 7 mph 94% 0.03 in 0 W/m2
00:08 40.3 °F 38.7 °F 29.4 in ENE 0.9 mph 4 mph 94% 0.04 in 0 W/m2
00:13 40.5 °F 39.2 °F 29.4 in East 2 mph 3 mph 95% 0.04 in 0 W/m2
00:18 40.6 °F 39.4 °F 29.4 in ENE 2 mph 16 mph 95% 0.03 in 0 W/m2
00:23 41.2 °F 39.9 °F 29.4 in East 6.9 mph 7 mph 95% 0.02 in 0 W/m2
00:28 41.5 °F 40.3 °F 29.4 in North 2 mph 16 mph 95% 0.02 in 0 W/m2
00:33 42.1 °F 40.8 °F 29.4 in NNW 2.9 mph 7 mph 95% 0.02 in 0 W/m2
00:38 42.4 °F 41.2 °F 29.4 in NE 2 mph 8 mph 95% 0.02 in 0 W/m2
00:43 42.6 °F 41 °F 29.4 in ENE 4 mph 10 mph 94% 0.02 in 0 W/m2
00:48 43 °F 41.4 °F 29.4 in NW 0.9 mph 5 mph 94% 0.02 in 0 W/m2
00:53 43.2 °F 41.5 °F 29.4 in WNW 2 mph 8 mph 94% 0.01 in 0 W/m2
00:58 43.3 °F 41.5 °F 29.4 in NW 0.9 mph 4 mph 93% 0.01 in 0 W/m2
01:03 43.5 °F 41.7 °F 29.4 in WNW 0.9 mph 5 mph 93% 0.01 in 0 W/m2
01:08 43.5 °F 41.7 °F 29.4 in NNE 2.9 mph 5 mph 93% 0 in 0 W/m2
01:13 43.9 °F 41.9 °F 29.4 in South 6.9 mph 7 mph 93% 0 in 0 W/m2
01:18 44.1 °F 41.9 °F 29.4 in NNW 2.9 mph 8 mph 92% 0 in 0 W/m2
01:23 44.1 °F 41.9 °F 29.4 in NNE 4 mph 5 mph 92% 0 in 0 W/m2
01:28 44.1 °F 41.9 °F 29.4 in NW 2 mph 9 mph 92% 0 in 0 W/m2
01:33 44.1 °F 41.9 °F 29.4 in SW 0.9 mph 9 mph 92% 0 in 0 W/m2
01:38 44.1 °F 41.9 °F 29.4 in NNW 0.9 mph 5 mph 92% 0 in 0 W/m2
01:43 43.9 °F 41.7 °F 29.4 in NW 2 mph 9 mph 92% 0 in 0 W/m2
01:48 43.9 °F 41.7 °F 29.4 in NE 0.9 mph 2 mph 92% 0 in 0 W/m2
01:53 43.9 °F 41.7 °F 29.4 in North 2 mph 3 mph 92% 0 in 0 W/m2
01:58 43.7 °F 41.5 °F 29.4 in Calm   5 mph 92% 0 in 0 W/m2
02:03 43.9 °F 41.7 °F 29.4 in North 4 mph 7 mph 92% 0 in 0 W/m2
02:08 43.9 °F 41.7 °F 29.4 in WNW 2.9 mph 4 mph 92% 0 in 0 W/m2
02:13 43.9 °F 41.7 °F 29.4 in NNW 2.9 mph 3 mph 92% 0 in 0 W/m2
02:18 43.9 °F 41.7 °F 29.4 in NNW 0.9 mph 3 mph 92% 0 in 0 W/m2
02:23 43.9 °F 41.7 °F 29.4 in Calm   2 mph 92% 0 in 0 W/m2
02:28 43.9 °F 41.7 °F 29.4 in NE 0.9 mph 2 mph 92% 0 in 0 W/m2
02:33 43.9 °F 41.7 °F 29.4 in NNE 0.9 mph 5 mph 92% 0 in 0 W/m2
02:38 44.1 °F 42.1 °F 29.4 in NE 2 mph 7 mph 93% 0 in 0 W/m2
02:43 44.1 °F 42.1 °F 29.4 in North 2 mph 3 mph 93% 0 in 0 W/m2
02:48 44.1 °F 42.1 °F 29.4 in North 2 mph 5 mph 93% 0 in 0 W/m2
02:53 44.1 °F 42.1 °F 29.4 in North 2.9 mph 4 mph 93% 0 in 0 W/m2
02:58 44.1 °F 42.1 °F 29.4 in Calm   5 mph 93% 0 in 0 W/m2
03:03 44.1 °F 42.1 °F 29.4 in NW 2.9 mph 3 mph 93% 0 in 0 W/m2
03:08 44.2 °F 42.3 °F 29.4 in NNE 2 mph 4 mph 93% 0 in 0 W/m2
03:13 44.2 °F 42.3 °F 29.4 in West 0.9 mph 3 mph 93% 0 in 0 W/m2
03:18 44.4 °F 42.3 °F 29.4 in NNE 0.9 mph 4 mph 92% 0 in 0 W/m2
03:23 44.4 °F 42.3 °F 29.4 in ESE 2.9 mph 4 mph 92% 0 in 0 W/m2
03:28 44.4 °F 42.3 °F 29.4 in ENE 2 mph 3 mph 92% 0 in 0 W/m2
03:33 44.4 °F 42.3 °F 29.4 in North 2.9 mph 6 mph 92% 0 in 0 W/m2
03:38 44.4 °F 42.3 °F 29.4 in NW 2 mph 3 mph 92% 0 in 0 W/m2
03:43 44.4 °F 42.3 °F 29.4 in East 2 mph 4 mph 92% 0 in 0 W/m2
03:48 44.4 °F 42.3 °F 29.4 in ENE 2 mph 4 mph 92% 0 in 0 W/m2
03:53 44.4 °F 42.3 °F 29.4 in WNW 0.9 mph 7 mph 92% 0 in 0 W/m2
03:58 44.4 °F 42.3 °F 29.4 in WNW 0.9 mph 2 mph 92% 0 in 0 W/m2
04:03 44.4 °F 42.3 °F 29.4 in WNW 4 mph 6 mph 92% 0 in 0 W/m2
04:08 44.4 °F 42.3 °F 29.4 in West 2 mph 4 mph 92% 0 in 0 W/m2
04:13 44.2 °F 42.1 °F 29.5 in Calm   3 mph 92% 0 in 0 W/m2
04:18 44.2 °F 42.1 °F 29.5 in NNE 2.9 mph 5 mph 92% 0 in 0 W/m2
04:23 44.2 °F 42.1 °F 29.4 in West 2.9 mph 3 mph 92% 0 in 0 W/m2
04:28 44.2 °F 42.1 °F 29.5 in Calm   5 mph 92% 0 in 0 W/m2
04:33 44.1 °F 41.5 °F 29.5 in Calm   7 mph 91% 0 in 0 W/m2
04:38 44.1 °F 41.5 °F 29.5 in Calm   2 mph 91% 0 in 0 W/m2
04:43 43.9 °F 41.4 °F 29.5 in NW 2.9 mph 5 mph 91% 0 in 0 W/m2
04:49 43.9 °F 41.4 °F 29.5 in NNW 0.9 mph 3 mph 91% 0 in 0 W/m2
04:54 43.9 °F 41.4 °F 29.5 in West 4 mph 6 mph 91% 0 in 0 W/m2
04:59 43.9 °F 41.4 °F 29.5 in Calm   3 mph 91% 0 in 0 W/m2
05:04 43.9 °F 41.4 °F 29.5 in Calm   2 mph 91% 0 in 0 W/m2
05:09 43.7 °F 41 °F 29.5 in NW 4 mph 6 mph 90% 0 in 0 W/m2
05:14 43.5 °F 40.8 °F 29.5 in Calm   1 mph 90% 0 in 0 W/m2
05:19 43.5 °F 40.8 °F 29.5 in WNW 2.9 mph 3 mph 90% 0 in 0 W/m2
05:24 43.5 °F 40.8 °F 29.5 in West 4 mph 4 mph 90% 0 in 0 W/m2
05:29 43.7 °F 40.6 °F 29.5 in WNW 0.9 mph 6 mph 89% 0 in 0 W/m2
05:34 43.7 °F 40.6 °F 29.5 in West 2 mph 5 mph 89% 0 in 0 W/m2
05:39 43.5 °F 40.5 °F 29.5 in WNW 4 mph 6 mph 89% 0 in 0 W/m2
05:44 43.5 °F 40.5 °F 29.5 in NW 2 mph 3 mph 89% 0 in 0 W/m2
05:49 43.5 °F 40.5 °F 29.5 in NW 2.9 mph 4 mph 89% 0 in 0 W/m2
05:54 43.5 °F 40.3 °F 29.5 in NNW 2.9 mph 6 mph 88% 0 in 0 W/m2
05:59 43.3 °F 40.1 °F 29.5 in NNW 4.9 mph 8 mph 88% 0 in 0 W/m2
06:04 43.3 °F 40.1 °F 29.5 in Calm   4 mph 88% 0 in 0 W/m2
06:09 43.3 °F 40.1 °F 29.5 in WNW 2.9 mph 7 mph 88% 0 in 0 W/m2
06:14 43.3 °F 40.1 °F 29.5 in NW 4 mph 4 mph 88% 0 in 0 W/m2
06:19 43.2 °F 39.9 °F 29.5 in NW 0.9 mph 4 mph 88% 0 in 0 W/m2
06:24 43.2 °F 39.9 °F 29.5 in WSW 2 mph 3 mph 88% 0 in 0 W/m2
06:29 43 °F 39.7 °F 29.5 in Calm   6 mph 88% 0 in 0 W/m2
06:34 43 °F 39.7 °F 29.5 in Calm   2 mph 88% 0 in 0 W/m2
06:39 42.8 °F 39.7 °F 29.5 in WNW 0.9 mph 6 mph 89% 0 in 0 W/m2
06:44 42.6 °F 39.6 °F 29.5 in NW 0.9 mph 4 mph 89% 0 in 0 W/m2
06:49 42.6 °F 39.6 °F 29.5 in WNW 6.9 mph 7 mph 89% 0 in 0 W/m2
06:54 42.6 °F 39.6 °F 29.5 in NW 4 mph 5 mph 89% 0 in 0 W/m2
06:59 42.6 °F 39.6 °F 29.5 in NW 2 mph 6 mph 89% 0 in 0 W/m2
07:04 42.6 °F 39.4 °F 29.5 in Calm   1 mph 88% 0 in 0 W/m2
07:09 42.4 °F 39.2 °F 29.5 in NW 0.9 mph 2 mph 88% 0 in 0 W/m2
07:14 42.4 °F 39.2 °F 29.5 in Calm   9 mph 88% 0 in 0 W/m2
07:19 42.4 °F 39.2 °F 29.5 in Calm   4 mph 88% 0 in 0 W/m2
07:24 42.4 °F 39.2 °F 29.5 in West 4 mph 9 mph 88% 0 in 0 W/m2
07:29 42.4 °F 38.8 °F 29.5 in WSW 0.9 mph 3 mph 87% 0 in 0 W/m2
07:34 42.3 °F 38.7 °F 29.5 in NW 0.9 mph 4 mph 87% 0 in 0 W/m2
07:39 42.3 °F 38.7 °F 29.5 in West 0.9 mph 3 mph 87% 0 in 0 W/m2
07:44 42.3 °F 38.7 °F 29.5 in Calm   1 mph 87% 0 in 0 W/m2
07:49 42.1 °F 38.5 °F 29.5 in Calm   3 mph 87% 0 in 0 W/m2
07:54 41.7 °F 38.1 °F 29.5 in WNW 0.9 mph 1 mph 87% 0 in 0 W/m2
07:59 41.5 °F 38.3 °F 29.5 in Calm     88% 0 in 0 W/m2
08:04 41.4 °F 38.1 °F 29.5 in Calm   1 mph 88% 0 in 0 W/m2
08:09 41 °F 37.9 °F 29.5 in East 2.9 mph 4 mph 89% 0 in 0 W/m2
08:14 40.8 °F 37.8 °F 29.5 in East 2 mph 3 mph 89% 0 in 0 W/m2
08:19 41 °F 37.9 °F 29.5 in Calm   4 mph 89% 0 in 0 W/m2
08:24 40.8 °F 37.8 °F 29.5 in Calm     89% 0 in 0 W/m2
08:29 40.6 °F 37.6 °F 29.5 in Calm     89% 0 in 0 W/m2
08:34 40.5 °F 37.8 °F 29.5 in Calm   1 mph 90% 0 in 0 W/m2
08:39 40.5 °F 37.8 °F 29.5 in Calm     90% 0 in 7 W/m2
08:44 40.3 °F 37.9 °F 29.5 in Calm     91% 0 in 7 W/m2
08:49 40.1 °F 37.8 °F 29.5 in Calm     91% 0 in 11 W/m2
08:54 39.9 °F 37.6 °F 29.5 in Calm   1 mph 91% 0 in 12 W/m2
08:59 39.9 °F 37.8 °F 29.5 in West 2 mph 2 mph 92% 0 in 16 W/m2
09:04 40.3 °F 37.9 °F 29.5 in Calm     91% 0 in 19 W/m2
09:09 40.3 °F 37.9 °F 29.5 in WNW 2 mph 2 mph 91% 0 in 19 W/m2
09:14 40.3 °F 37.9 °F 29.5 in Calm   1 mph 91% 0 in 23 W/m2
09:19 40.5 °F 38.1 °F 29.5 in Calm     91% 0 in 25 W/m2
09:24 40.5 °F 38.1 °F 29.5 in NE 0.9 mph 3 mph 91% 0 in 26 W/m2
09:29 40.5 °F 37.8 °F 29.5 in ESE 0.9 mph 2 mph 90% 0 in 28 W/m2
09:34 40.5 °F 38.1 °F 29.5 in Calm   2 mph 91% 0 in 35 W/m2
09:39 40.6 °F 37.9 °F 29.5 in Calm   2 mph 90% 0 in 39 W/m2
09:44 40.6 °F 37.9 °F 29.5 in ENE 2.9 mph 3 mph 90% 0 in 42 W/m2
09:49 40.8 °F 38.1 °F 29.5 in Calm   2 mph 90% 0 in 44 W/m2
09:54 41 °F 38.3 °F 29.5 in Calm   2 mph 90% 0 in 47 W/m2
09:59 41.2 °F 38.1 °F 29.5 in ESE 0.9 mph 2 mph 89% 0 in 47 W/m2
Juneau County Weather
Compliments of Weather Underground - 2 mb